sensor_id;sensor_type;location;lat;lon;timestamp;pressure;altitude;pressure_sealevel;temperature;humidity
8573;BME280;4324;42.012;24.872;2023-05-07T00:00:00;99183.38;;;16.31;80.06
8573;BME280;4324;42.012;24.872;2023-05-07T00:02:28;99179.06;;;16.30;80.41
8573;BME280;4324;42.012;24.872;2023-05-07T00:04:56;99187.34;;;16.35;80.62
8573;BME280;4324;42.012;24.872;2023-05-07T00:07:23;99181.94;;;16.22;80.56
8573;BME280;4324;42.012;24.872;2023-05-07T00:09:50;99175.75;;;16.21;80.59
8573;BME280;4324;42.012;24.872;2023-05-07T00:12:17;99178.19;;;16.16;80.76
8573;BME280;4324;42.012;24.872;2023-05-07T00:14:44;99173.22;;;16.07;80.85
8573;BME280;4324;42.012;24.872;2023-05-07T00:17:11;99194.63;;;16.20;81.11
8573;BME280;4324;42.012;24.872;2023-05-07T00:19:38;99181.66;;;16.10;80.82
8573;BME280;4324;42.012;24.872;2023-05-07T00:22:08;99122.25;;;15.67;80.78
8573;BME280;4324;42.012;24.872;2023-05-07T00:24:35;99166.38;;;15.97;80.83
8573;BME280;4324;42.012;24.872;2023-05-07T00:27:02;99187.19;;;16.09;80.95
8573;BME280;4324;42.012;24.872;2023-05-07T00:29:29;99184.09;;;16.05;80.84
8573;BME280;4324;42.012;24.872;2023-05-07T00:31:56;99148.81;;;15.82;80.91
8573;BME280;4324;42.012;24.872;2023-05-07T00:34:23;99164.88;;;15.88;81.05
8573;BME280;4324;42.012;24.872;2023-05-07T00:36:50;99140.97;;;15.73;80.64
8573;BME280;4324;42.012;24.872;2023-05-07T00:39:18;99188.34;;;15.93;80.84
8573;BME280;4324;42.012;24.872;2023-05-07T00:41:45;99169.38;;;15.81;81.04
8573;BME280;4324;42.012;24.872;2023-05-07T00:44:12;99096.72;;;15.30;80.92
8573;BME280;4324;42.012;24.872;2023-05-07T00:46:40;99186.22;;;15.82;80.87
8573;BME280;4324;42.012;24.872;2023-05-07T00:49:07;99162.63;;;15.64;81.12
8573;BME280;4324;42.012;24.872;2023-05-07T00:51:34;99161.81;;;15.63;80.91
8573;BME280;4324;42.012;24.872;2023-05-07T00:54:02;99138.25;;;15.39;81.44
8573;BME280;4324;42.012;24.872;2023-05-07T00:56:31;99096.13;;;15.06;81.74
8573;BME280;4324;42.012;24.872;2023-05-07T00:58:59;99171.56;;;15.49;82.13
8573;BME280;4324;42.012;24.872;2023-05-07T01:01:27;99102.59;;;14.97;82.45
8573;BME280;4324;42.012;24.872;2023-05-07T01:03:54;99117.00;;;15.03;82.32
8573;BME280;4324;42.012;24.872;2023-05-07T01:06:21;99153.25;;;15.18;82.68
8573;BME280;4324;42.012;24.872;2023-05-07T01:08:49;99176.09;;;15.28;83.55
8573;BME280;4324;42.012;24.872;2023-05-07T01:11:18;99168.06;;;15.21;83.89
8573;BME280;4324;42.012;24.872;2023-05-07T01:13:47;99178.72;;;15.21;83.66
8573;BME280;4324;42.012;24.872;2023-05-07T01:16:16;99173.78;;;15.18;83.65
8573;BME280;4324;42.012;24.872;2023-05-07T01:18:43;99150.66;;;15.04;83.32
8573;BME280;4324;42.012;24.872;2023-05-07T01:21:11;99131.84;;;14.90;83.70
8573;BME280;4324;42.012;24.872;2023-05-07T01:23:40;99161.69;;;15.00;84.28
8573;BME280;4324;42.012;24.872;2023-05-07T01:26:08;99167.91;;;15.08;84.52
8573;BME280;4324;42.012;24.872;2023-05-07T01:28:35;99168.28;;;15.05;84.49
8573;BME280;4324;42.012;24.872;2023-05-07T01:31:03;99102.84;;;14.59;84.32
8573;BME280;4324;42.012;24.872;2023-05-07T01:33:33;99151.75;;;14.88;84.55
8573;BME280;4324;42.012;24.872;2023-05-07T01:36:03;99155.84;;;14.90;85.31
8573;BME280;4324;42.012;24.872;2023-05-07T01:38:32;99159.59;;;14.96;85.84
8573;BME280;4324;42.012;24.872;2023-05-07T01:41:01;99155.31;;;14.95;85.24
8573;BME280;4324;42.012;24.872;2023-05-07T01:43:28;99118.09;;;14.65;85.18
8573;BME280;4324;42.012;24.872;2023-05-07T01:45:57;99113.97;;;14.63;85.16
8573;BME280;4324;42.012;24.872;2023-05-07T01:48:24;99157.00;;;14.81;85.42
8573;BME280;4324;42.012;24.872;2023-05-07T01:50:51;99141.00;;;14.81;86.07
8573;BME280;4324;42.012;24.872;2023-05-07T01:53:18;99154.59;;;14.86;86.34
8573;BME280;4324;42.012;24.872;2023-05-07T01:55:45;99078.00;;;14.37;86.49
8573;BME280;4324;42.012;24.872;2023-05-07T01:58:13;99130.19;;;14.68;86.59
8573;BME280;4324;42.012;24.872;2023-05-07T02:00:40;99153.69;;;14.79;86.36
8573;BME280;4324;42.012;24.872;2023-05-07T02:03:07;99112.50;;;14.45;86.60
8573;BME280;4324;42.012;24.872;2023-05-07T02:05:34;99135.03;;;14.58;87.01
8573;BME280;4324;42.012;24.872;2023-05-07T02:08:02;99130.06;;;14.55;86.79
8573;BME280;4324;42.012;24.872;2023-05-07T02:10:29;99141.63;;;14.62;86.46
8573;BME280;4324;42.012;24.872;2023-05-07T02:12:55;99149.88;;;14.67;86.47
8573;BME280;4324;42.012;24.872;2023-05-07T02:15:24;99146.59;;;14.65;86.76
8573;BME280;4324;42.012;24.872;2023-05-07T02:18:02;99102.34;;;14.34;86.65
8573;BME280;4324;42.012;24.872;2023-05-07T02:20:29;99146.97;;;14.62;86.85
8573;BME280;4324;42.012;24.872;2023-05-07T02:22:56;99142.75;;;14.52;86.80
8573;BME280;4324;42.012;24.872;2023-05-07T02:25:23;99161.69;;;14.58;86.88
8573;BME280;4324;42.012;24.872;2023-05-07T02:27:50;99150.81;;;14.44;87.13
8573;BME280;4324;42.012;24.872;2023-05-07T02:30:17;99172.25;;;14.51;86.44
8573;BME280;4324;42.012;24.872;2023-05-07T02:32:48;99171.94;;;14.46;83.86
8573;BME280;4324;42.012;24.872;2023-05-07T02:35:15;99134.63;;;14.10;83.23
8573;BME280;4324;42.012;24.872;2023-05-07T02:37:42;99126.56;;;14.03;83.22
8573;BME280;4324;42.012;24.872;2023-05-07T02:40:10;99157.09;;;14.22;83.72
8573;BME280;4324;42.012;24.872;2023-05-07T02:42:37;99158.38;;;14.26;83.87
8573;BME280;4324;42.012;24.872;2023-05-07T02:45:05;99128.66;;;14.08;84.12
8573;BME280;4324;42.012;24.872;2023-05-07T02:47:32;99169.84;;;14.41;83.57
8573;BME280;4324;42.012;24.872;2023-05-07T02:50:00;99150.94;;;14.36;83.70
8573;BME280;4324;42.012;24.872;2023-05-07T02:52:27;99142.94;;;14.36;83.72
8573;BME280;4324;42.012;24.872;2023-05-07T02:54:54;99165.75;;;14.54;83.87
8573;BME280;4324;42.012;24.872;2023-05-07T02:57:21;99163.69;;;14.56;83.60
8573;BME280;4324;42.012;24.872;2023-05-07T02:59:48;99162.66;;;14.57;82.10
8573;BME280;4324;42.012;24.872;2023-05-07T03:02:15;99169.84;;;14.56;80.76
8573;BME280;4324;42.012;24.872;2023-05-07T03:04:42;99147.72;;;14.41;79.05
8573;BME280;4324;42.012;24.872;2023-05-07T03:07:10;99121.84;;;14.20;80.12
8573;BME280;4324;42.012;24.872;2023-05-07T03:09:37;99156.88;;;14.38;80.20
8573;BME280;4324;42.012;24.872;2023-05-07T03:12:04;99168.44;;;14.45;80.27
8573;BME280;4324;42.012;24.872;2023-05-07T03:14:31;99173.16;;;14.43;80.61
8573;BME280;4324;42.012;24.872;2023-05-07T03:16:57;99079.03;;;13.85;81.23
8573;BME280;4324;42.012;24.872;2023-05-07T03:19:24;99167.19;;;14.41;81.59
8573;BME280;4324;42.012;24.872;2023-05-07T03:21:51;99140.41;;;14.28;81.65
8573;BME280;4324;42.012;24.872;2023-05-07T03:24:20;99163.50;;;14.42;81.73
8573;BME280;4324;42.012;24.872;2023-05-07T03:26:47;99133.78;;;14.24;81.12
8573;BME280;4324;42.012;24.872;2023-05-07T03:29:14;99113.13;;;14.11;81.54
8573;BME280;4324;42.012;24.872;2023-05-07T03:31:41;99163.50;;;14.42;81.68
8573;BME280;4324;42.012;24.872;2023-05-07T03:34:08;99145.97;;;14.33;82.18
8573;BME280;4324;42.012;24.872;2023-05-07T03:36:35;99147.81;;;14.33;82.24
8573;BME280;4324;42.012;24.872;2023-05-07T03:39:02;99146.91;;;14.25;81.94
8573;BME280;4324;42.012;24.872;2023-05-07T03:41:32;99155.63;;;14.34;82.40
8573;BME280;4324;42.012;24.872;2023-05-07T03:43:59;99140.56;;;14.26;82.48
8573;BME280;4324;42.012;24.872;2023-05-07T03:46:26;99138.09;;;14.25;82.93
8573;BME280;4324;42.012;24.872;2023-05-07T03:48:53;99161.41;;;14.38;83.00
8573;BME280;4324;42.012;24.872;2023-05-07T03:51:20;99160.78;;;14.36;82.90
8573;BME280;4324;42.012;24.872;2023-05-07T03:53:47;99156.88;;;14.38;82.90
8573;BME280;4324;42.012;24.872;2023-05-07T03:56:14;99117.91;;;14.16;83.18
8573;BME280;4324;42.012;24.872;2023-05-07T03:58:42;99161.28;;;14.46;83.41
8573;BME280;4324;42.012;24.872;2023-05-07T04:01:09;99164.25;;;14.51;83.29
8573;BME280;4324;42.012;24.872;2023-05-07T04:03:36;99150.81;;;14.44;83.38
8573;BME280;4324;42.012;24.872;2023-05-07T04:06:03;99131.94;;;14.39;82.84
8573;BME280;4324;42.012;24.872;2023-05-07T04:08:31;99112.91;;;14.27;82.45
8573;BME280;4324;42.012;24.872;2023-05-07T04:10:58;99132.38;;;14.43;82.87
8573;BME280;4324;42.012;24.872;2023-05-07T04:13:25;99159.91;;;14.65;82.73
8573;BME280;4324;42.012;24.872;2023-05-07T04:15:55;99164.47;;;14.71;82.76
8573;BME280;4324;42.012;24.872;2023-05-07T04:18:22;99168.84;;;14.79;82.75
8573;BME280;4324;42.012;24.872;2023-05-07T04:20:49;99167.28;;;14.84;82.45
8573;BME280;4324;42.012;24.872;2023-05-07T04:23:16;99173.53;;;14.91;82.36
8573;BME280;4324;42.012;24.872;2023-05-07T04:25:43;99166.41;;;14.98;81.60
8573;BME280;4324;42.012;24.872;2023-05-07T04:28:10;99143.63;;;14.96;81.66
8573;BME280;4324;42.012;24.872;2023-05-07T04:30:38;99174.78;;;15.17;81.77
8573;BME280;4324;42.012;24.872;2023-05-07T04:33:06;99161.06;;;15.20;81.58
8573;BME280;4324;42.012;24.872;2023-05-07T04:35:33;99172.88;;;15.32;81.68
8573;BME280;4324;42.012;24.872;2023-05-07T04:38:01;99149.03;;;15.31;81.56
8573;BME280;4324;42.012;24.872;2023-05-07T04:40:28;99148.06;;;15.38;81.80
8573;BME280;4324;42.012;24.872;2023-05-07T04:42:55;99161.16;;;15.55;81.33
8573;BME280;4324;42.012;24.872;2023-05-07T04:45:22;99133.72;;;15.39;81.52
8573;BME280;4324;42.012;24.872;2023-05-07T04:47:49;99164.69;;;15.62;81.23
8573;BME280;4324;42.012;24.872;2023-05-07T04:50:18;99139.78;;;15.55;81.30
8573;BME280;4324;42.012;24.872;2023-05-07T04:52:45;99146.25;;;15.67;81.80
8573;BME280;4324;42.012;24.872;2023-05-07T04:55:12;99145.88;;;15.70;81.70
8573;BME280;4324;42.012;24.872;2023-05-07T04:57:39;99169.19;;;15.89;81.77
8573;BME280;4324;42.012;24.872;2023-05-07T05:00:07;99167.41;;;15.96;81.50
8573;BME280;4324;42.012;24.872;2023-05-07T05:02:35;99177.09;;;16.04;81.60
8573;BME280;4324;42.012;24.872;2023-05-07T05:05:02;99175.06;;;16.13;81.42
8573;BME280;4324;42.012;24.872;2023-05-07T05:07:30;99179.03;;;16.17;81.23
8573;BME280;4324;42.012;24.872;2023-05-07T05:09:57;99180.28;;;16.28;81.11
8573;BME280;4324;42.012;24.872;2023-05-07T05:12:24;99159.31;;;16.18;80.18
8573;BME280;4324;42.012;24.872;2023-05-07T05:14:51;99183.25;;;16.39;80.38
8573;BME280;4324;42.012;24.872;2023-05-07T05:17:18;99187.38;;;16.49;80.39
8573;BME280;4324;42.012;24.872;2023-05-07T05:19:45;99154.03;;;16.38;80.44
8573;BME280;4324;42.012;24.872;2023-05-07T05:22:12;99180.00;;;16.57;80.50
8573;BME280;4324;42.012;24.872;2023-05-07T05:24:40;99183.31;;;16.59;80.62
8573;BME280;4324;42.012;24.872;2023-05-07T05:27:07;99173.63;;;16.52;80.89
8573;BME280;4324;42.012;24.872;2023-05-07T05:29:34;99168.47;;;16.43;81.24
8573;BME280;4324;42.012;24.872;2023-05-07T05:32:01;99189.06;;;16.56;81.61
8573;BME280;4324;42.012;24.872;2023-05-07T05:34:28;99195.63;;;16.54;81.58
8573;BME280;4324;42.012;24.872;2023-05-07T05:36:55;99196.03;;;16.51;81.97
8573;BME280;4324;42.012;24.872;2023-05-07T05:39:22;99186.38;;;16.56;81.86
8573;BME280;4324;42.012;24.872;2023-05-07T05:41:50;99186.41;;;16.63;81.90
8573;BME280;4324;42.012;24.872;2023-05-07T05:44:17;99190.19;;;16.75;81.82
8573;BME280;4324;42.012;24.872;2023-05-07T05:46:44;99204.22;;;16.97;81.42
8573;BME280;4324;42.012;24.872;2023-05-07T05:49:11;99162.44;;;16.76;81.06
8573;BME280;4324;42.012;24.872;2023-05-07T05:51:38;99203.22;;;17.11;80.86
8573;BME280;4324;42.012;24.872;2023-05-07T05:54:05;99183.03;;;17.09;80.78
8573;BME280;4324;42.012;24.872;2023-05-07T05:56:32;99211.69;;;17.41;80.38
8573;BME280;4324;42.012;24.872;2023-05-07T05:59:00;99194.81;;;17.34;80.07
8573;BME280;4324;42.012;24.872;2023-05-07T06:01:27;99189.25;;;17.29;80.08
8573;BME280;4324;42.012;24.872;2023-05-07T06:03:54;99204.06;;;17.38;80.70
8573;BME280;4324;42.012;24.872;2023-05-07T06:06:22;99211.69;;;17.41;80.59
8573;BME280;4324;42.012;24.872;2023-05-07T06:08:48;99207.38;;;17.34;80.74
8573;BME280;4324;42.012;24.872;2023-05-07T06:11:15;99226.53;;;17.44;80.72
8573;BME280;4324;42.012;24.872;2023-05-07T06:13:42;99188.63;;;17.27;80.48
8573;BME280;4324;42.012;24.872;2023-05-07T06:16:10;99185.56;;;17.17;80.41
8573;BME280;4324;42.012;24.872;2023-05-07T06:18:37;99226.75;;;17.36;80.64
8573;BME280;4324;42.012;24.872;2023-05-07T06:21:04;99198.50;;;17.20;80.61
8573;BME280;4324;42.012;24.872;2023-05-07T06:23:31;99154.22;;;16.98;80.61
8573;BME280;4324;42.012;24.872;2023-05-07T06:25:58;99189.66;;;17.26;80.44
8573;BME280;4324;42.012;24.872;2023-05-07T06:28:25;99219.53;;;17.56;80.29
8573;BME280;4324;42.012;24.872;2023-05-07T06:30:52;99204.69;;;17.54;80.16
8573;BME280;4324;42.012;24.872;2023-05-07T06:33:21;99202.44;;;17.64;79.81
8573;BME280;4324;42.012;24.872;2023-05-07T06:35:48;99194.22;;;17.65;79.72
8573;BME280;4324;42.012;24.872;2023-05-07T06:38:15;99210.69;;;17.82;79.54
8573;BME280;4324;42.012;24.872;2023-05-07T06:40:42;99195.66;;;17.81;79.29
8573;BME280;4324;42.012;24.872;2023-05-07T06:43:09;99132.00;;;17.57;79.03
8573;BME280;4324;42.012;24.872;2023-05-07T06:45:36;99203.00;;;18.19;78.55
8573;BME280;4324;42.012;24.872;2023-05-07T06:48:04;99213.88;;;18.37;77.82
8573;BME280;4324;42.012;24.872;2023-05-07T06:50:32;99201.44;;;18.50;77.29
8573;BME280;4324;42.012;24.872;2023-05-07T06:52:59;99208.41;;;18.71;76.62
8573;BME280;4324;42.012;24.872;2023-05-07T06:55:26;99165.13;;;18.54;75.72
8573;BME280;4324;42.012;24.872;2023-05-07T06:57:53;99196.44;;;18.73;75.63
8573;BME280;4324;42.012;24.872;2023-05-07T07:00:20;99209.59;;;18.81;75.21
8573;BME280;4324;42.012;24.872;2023-05-07T07:02:47;99206.84;;;18.95;75.02
8573;BME280;4324;42.012;24.872;2023-05-07T07:05:14;99187.03;;;18.96;74.63
8573;BME280;4324;42.012;24.872;2023-05-07T07:07:42;99155.28;;;18.86;73.87
8573;BME280;4324;42.012;24.872;2023-05-07T07:10:09;99195.38;;;19.13;73.43
8573;BME280;4324;42.012;24.872;2023-05-07T07:12:36;99215.34;;;19.23;73.18
8573;BME280;4324;42.012;24.872;2023-05-07T07:15:04;99219.22;;;19.27;73.17
8573;BME280;4324;42.012;24.872;2023-05-07T07:17:31;99217.50;;;19.40;72.75
8573;BME280;4324;42.012;24.872;2023-05-07T07:19:58;99215.13;;;19.50;72.24
8573;BME280;4324;42.012;24.872;2023-05-07T07:22:25;99214.78;;;19.71;71.68
8573;BME280;4324;42.012;24.872;2023-05-07T07:24:53;99208.25;;;19.86;70.68
8573;BME280;4324;42.012;24.872;2023-05-07T07:27:20;99165.09;;;19.62;69.86
8573;BME280;4324;42.012;24.872;2023-05-07T07:29:47;99176.75;;;19.74;69.22
8573;BME280;4324;42.012;24.872;2023-05-07T07:32:14;99210.97;;;20.04;69.36
8573;BME280;4324;42.012;24.872;2023-05-07T07:34:41;99201.66;;;20.06;68.85
8573;BME280;4324;42.012;24.872;2023-05-07T07:37:07;99215.56;;;20.22;68.97
8573;BME280;4324;42.012;24.872;2023-05-07T07:39:35;99212.19;;;20.26;68.86
8573;BME280;4324;42.012;24.872;2023-05-07T07:42:04;99214.13;;;20.38;68.64
8573;BME280;4324;42.012;24.872;2023-05-07T07:44:31;99225.53;;;20.58;68.26
8573;BME280;4324;42.012;24.872;2023-05-07T07:46:58;99226.97;;;20.72;67.27
8573;BME280;4324;42.012;24.872;2023-05-07T07:49:25;99206.97;;;20.68;66.34
8573;BME280;4324;42.012;24.872;2023-05-07T07:51:51;99230.56;;;20.85;65.99
8573;BME280;4324;42.012;24.872;2023-05-07T07:54:18;99228.97;;;20.95;65.86
8573;BME280;4324;42.012;24.872;2023-05-07T07:56:45;99221.03;;;21.00;65.50
8573;BME280;4324;42.012;24.872;2023-05-07T07:59:13;99232.91;;;21.11;64.87
8573;BME280;4324;42.012;24.872;2023-05-07T08:01:44;99233.94;;;21.10;64.28
8573;BME280;4324;42.012;24.872;2023-05-07T08:04:11;99230.66;;;21.08;63.96
8573;BME280;4324;42.012;24.872;2023-05-07T08:06:38;99225.00;;;20.98;63.64
8573;BME280;4324;42.012;24.872;2023-05-07T08:09:05;99227.09;;;20.96;63.59
8573;BME280;4324;42.012;24.872;2023-05-07T08:11:32;99214.34;;;20.91;63.66
8573;BME280;4324;42.012;24.872;2023-05-07T08:13:59;99210.72;;;20.97;63.66
8573;BME280;4324;42.012;24.872;2023-05-07T08:16:28;99228.09;;;21.13;63.48
8573;BME280;4324;42.012;24.872;2023-05-07T08:18:55;99169.84;;;20.89;63.02
8573;BME280;4324;42.012;24.872;2023-05-07T08:21:22;99221.16;;;21.36;62.58
8573;BME280;4324;42.012;24.872;2023-05-07T08:23:49;99211.00;;;21.49;62.11
8573;BME280;4324;42.012;24.872;2023-05-07T08:26:16;99194.53;;;21.69;61.13
8573;BME280;4324;42.012;24.872;2023-05-07T08:28:43;99213.72;;;21.96;60.50
8573;BME280;4324;42.012;24.872;2023-05-07T08:31:10;99213.97;;;22.07;59.88
8573;BME280;4324;42.012;24.872;2023-05-07T08:33:38;99208.69;;;22.12;59.49
8573;BME280;4324;42.012;24.872;2023-05-07T08:36:05;99206.78;;;22.12;58.73
8573;BME280;4324;42.012;24.872;2023-05-07T08:38:32;99212.44;;;22.11;58.21
8573;BME280;4324;42.012;24.872;2023-05-07T08:40:59;99195.69;;;21.97;58.76
8573;BME280;4324;42.012;24.872;2023-05-07T08:43:27;99201.31;;;22.07;58.48
8573;BME280;4324;42.012;24.872;2023-05-07T08:45:55;99209.16;;;22.20;58.06
8573;BME280;4324;42.012;24.872;2023-05-07T08:48:28;99203.44;;;22.29;57.60
8573;BME280;4324;42.012;24.872;2023-05-07T08:50:57;99189.09;;;22.40;56.79
8573;BME280;4324;42.012;24.872;2023-05-07T08:53:24;99201.16;;;22.78;56.36
8573;BME280;4324;42.012;24.872;2023-05-07T08:55:52;99191.06;;;22.85;56.17
8573;BME280;4324;42.012;24.872;2023-05-07T08:58:19;99195.84;;;22.83;55.65
8573;BME280;4324;42.012;24.872;2023-05-07T09:00:47;99191.88;;;22.85;55.77
8573;BME280;4324;42.012;24.872;2023-05-07T09:03:14;99182.13;;;22.84;55.44
8573;BME280;4324;42.012;24.872;2023-05-07T09:05:41;99190.06;;;22.91;54.82
8573;BME280;4324;42.012;24.872;2023-05-07T09:08:14;99183.41;;;22.93;54.13
8573;BME280;4324;42.012;24.872;2023-05-07T09:10:41;99178.94;;;22.99;54.63
8573;BME280;4324;42.012;24.872;2023-05-07T09:13:08;99164.84;;;22.97;54.25
8573;BME280;4324;42.012;24.872;2023-05-07T09:15:38;99178.03;;;23.10;53.96
8573;BME280;4324;42.012;24.872;2023-05-07T09:18:05;99182.25;;;23.06;54.01
8573;BME280;4324;42.012;24.872;2023-05-07T09:20:32;99178.53;;;23.07;54.00
8573;BME280;4324;42.012;24.872;2023-05-07T09:22:59;99177.94;;;23.05;53.54
8573;BME280;4324;42.012;24.872;2023-05-07T09:25:31;99159.81;;;22.89;53.31
8573;BME280;4324;42.012;24.872;2023-05-07T09:27:58;99170.97;;;22.92;53.05
8573;BME280;4324;42.012;24.872;2023-05-07T09:30:27;99160.75;;;22.83;52.88
8573;BME280;4324;42.012;24.872;2023-05-07T09:32:54;99175.56;;;22.92;52.97
8573;BME280;4324;42.012;24.872;2023-05-07T09:35:22;99151.59;;;22.84;52.67
8573;BME280;4324;42.012;24.872;2023-05-07T09:37:50;99152.66;;;22.83;52.67
8573;BME280;4324;42.012;24.872;2023-05-07T09:40:22;99169.09;;;22.93;51.67
8573;BME280;4324;42.012;24.872;2023-05-07T09:42:50;99169.53;;;22.90;51.49
8573;BME280;4324;42.012;24.872;2023-05-07T09:45:21;99127.22;;;22.79;50.68
8573;BME280;4324;42.012;24.872;2023-05-07T09:47:49;99121.06;;;22.83;49.40
8573;BME280;4324;42.012;24.872;2023-05-07T09:50:22;99155.59;;;23.10;48.94
8573;BME280;4324;42.012;24.872;2023-05-07T09:52:52;99154.38;;;23.17;48.76
8573;BME280;4324;42.012;24.872;2023-05-07T09:55:19;99153.88;;;23.21;48.69
8573;BME280;4324;42.012;24.872;2023-05-07T09:57:52;99140.22;;;23.27;48.29
8573;BME280;4324;42.012;24.872;2023-05-07T10:00:19;99148.25;;;23.39;48.22
8573;BME280;4324;42.012;24.872;2023-05-07T10:02:47;99143.00;;;23.32;48.17
8573;BME280;4324;42.012;24.872;2023-05-07T10:05:17;99150.81;;;23.29;47.63
8573;BME280;4324;42.012;24.872;2023-05-07T10:07:44;99138.94;;;23.30;47.28
8573;BME280;4324;42.012;24.872;2023-05-07T10:10:12;99153.50;;;23.46;47.18
8573;BME280;4324;42.012;24.872;2023-05-07T10:12:40;99151.50;;;23.58;46.27
8573;BME280;4324;42.012;24.872;2023-05-07T10:15:09;99149.56;;;23.70;45.54
8573;BME280;4324;42.012;24.872;2023-05-07T10:17:37;99141.41;;;23.87;45.38
8573;BME280;4324;42.012;24.872;2023-05-07T10:20:06;99124.97;;;23.88;44.96
8573;BME280;4324;42.012;24.872;2023-05-07T10:22:38;99098.84;;;23.77;45.12
8573;BME280;4324;42.012;24.872;2023-05-07T10:25:07;99125.91;;;23.99;45.51
8573;BME280;4324;42.012;24.872;2023-05-07T10:27:36;99116.22;;;24.03;45.25
8573;BME280;4324;42.012;24.872;2023-05-07T10:30:12;99119.63;;;24.15;44.76
8573;BME280;4324;42.012;24.872;2023-05-07T10:32:45;99116.41;;;24.19;44.49
8573;BME280;4324;42.012;24.872;2023-05-07T10:35:17;99117.59;;;24.28;44.39
8573;BME280;4324;42.012;24.872;2023-05-07T10:37:46;99108.44;;;24.29;44.69
8573;BME280;4324;42.012;24.872;2023-05-07T10:40:13;99076.88;;;24.18;44.07
8573;BME280;4324;42.012;24.872;2023-05-07T10:42:54;99107.16;;;24.58;43.92
8573;BME280;4324;42.012;24.872;2023-05-07T10:45:23;99070.47;;;24.46;43.68
8573;BME280;4324;42.012;24.872;2023-05-07T10:48:10;99102.63;;;24.69;43.54
8573;BME280;4324;42.012;24.872;2023-05-07T10:50:38;99112.19;;;24.77;43.35
8573;BME280;4324;42.012;24.872;2023-05-07T10:53:22;99097.75;;;24.66;42.88
8573;BME280;4324;42.012;24.872;2023-05-07T10:56:25;99101.69;;;24.53;42.79
8573;BME280;4324;42.012;24.872;2023-05-07T10:58:55;99093.88;;;24.57;43.28
8573;BME280;4324;42.012;24.872;2023-05-07T11:01:52;99093.41;;;24.65;42.86
8573;BME280;4324;42.012;24.872;2023-05-07T11:04:20;99090.69;;;24.65;42.65
8573;BME280;4324;42.012;24.872;2023-05-07T11:09:59;99068.31;;;24.75;42.59
8573;BME280;4324;42.012;24.872;2023-05-07T11:12:49;99089.66;;;24.98;42.26
8573;BME280;4324;42.012;24.872;2023-05-07T11:15:37;99072.34;;;24.99;41.80
8573;BME280;4324;42.012;24.872;2023-05-07T11:18:06;99091.06;;;25.06;41.79
8573;BME280;4324;42.012;24.872;2023-05-07T11:20:53;99084.44;;;24.92;42.04
8573;BME280;4324;42.012;24.872;2023-05-07T11:23:55;99085.41;;;24.80;42.07
8573;BME280;4324;42.012;24.872;2023-05-07T11:26:23;99061.72;;;24.66;42.58
8573;BME280;4324;42.012;24.872;2023-05-07T11:28:52;99079.78;;;24.87;42.02
8573;BME280;4324;42.012;24.872;2023-05-07T11:31:24;99074.94;;;24.89;42.24
8573;BME280;4324;42.012;24.872;2023-05-07T11:33:54;99059.00;;;24.93;42.07
8573;BME280;4324;42.012;24.872;2023-05-07T11:36:22;99033.75;;;24.87;41.70
8573;BME280;4324;42.012;24.872;2023-05-07T11:38:50;99070.81;;;25.14;42.02
8573;BME280;4324;42.012;24.872;2023-05-07T11:41:17;99068.69;;;25.16;41.59
8573;BME280;4324;42.012;24.872;2023-05-07T11:43:59;99057.38;;;25.24;41.48
8573;BME280;4324;42.012;24.872;2023-05-07T11:46:27;99058.47;;;25.28;41.14
8573;BME280;4324;42.012;24.872;2023-05-07T11:48:56;99060.97;;;25.40;41.06
8573;BME280;4324;42.012;24.872;2023-05-07T11:51:24;99058.03;;;25.46;40.58
8573;BME280;4324;42.012;24.872;2023-05-07T11:53:52;99063.53;;;25.56;40.84
8573;BME280;4324;42.012;24.872;2023-05-07T11:56:20;99023.50;;;25.26;40.78
8573;BME280;4324;42.012;24.872;2023-05-07T11:58:47;99042.19;;;25.23;41.66
8573;BME280;4324;42.012;24.872;2023-05-07T12:01:15;99050.56;;;25.21;41.23
8573;BME280;4324;42.012;24.872;2023-05-07T12:03:44;99044.69;;;25.34;41.07
8573;BME280;4324;42.012;24.872;2023-05-07T12:06:15;99041.84;;;25.56;41.03
8573;BME280;4324;42.012;24.872;2023-05-07T12:08:43;99048.97;;;25.73;40.81
8573;BME280;4324;42.012;24.872;2023-05-07T12:11:14;99037.59;;;25.71;40.38
8573;BME280;4324;42.012;24.872;2023-05-07T12:13:43;99042.53;;;25.84;40.21
8573;BME280;4324;42.012;24.872;2023-05-07T12:16:10;99049.63;;;25.90;39.96
8573;BME280;4324;42.012;24.872;2023-05-07T12:18:39;99047.19;;;25.89;40.32
8573;BME280;4324;42.012;24.872;2023-05-07T12:21:07;99034.97;;;25.91;39.92
8573;BME280;4324;42.012;24.872;2023-05-07T12:23:36;99019.78;;;25.90;39.88
8573;BME280;4324;42.012;24.872;2023-05-07T12:26:03;99022.22;;;25.92;39.36
8573;BME280;4324;42.012;24.872;2023-05-07T12:28:36;99037.44;;;26.03;38.97
8573;BME280;4324;42.012;24.872;2023-05-07T12:31:04;99028.53;;;26.13;38.94
8573;BME280;4324;42.012;24.872;2023-05-07T12:33:32;99009.00;;;26.16;39.01
8573;BME280;4324;42.012;24.872;2023-05-07T12:36:03;98993.28;;;26.23;38.88
8573;BME280;4324;42.012;24.872;2023-05-07T12:38:39;99010.16;;;26.40;38.90
8573;BME280;4324;42.012;24.872;2023-05-07T12:41:08;99017.25;;;26.57;38.33
8573;BME280;4324;42.012;24.872;2023-05-07T12:43:35;99006.38;;;26.77;37.99
8573;BME280;4324;42.012;24.872;2023-05-07T12:46:04;99001.78;;;26.83;37.92
8573;BME280;4324;42.012;24.872;2023-05-07T12:48:32;99016.44;;;27.02;37.74
8573;BME280;4324;42.012;24.872;2023-05-07T12:51:00;99013.97;;;27.06;37.36
8573;BME280;4324;42.012;24.872;2023-05-07T12:53:29;99008.56;;;27.00;37.40
8573;BME280;4324;42.012;24.872;2023-05-07T12:55:59;99006.66;;;26.91;36.99
8573;BME280;4324;42.012;24.872;2023-05-07T12:58:27;98979.53;;;26.70;37.26
8573;BME280;4324;42.012;24.872;2023-05-07T13:00:55;99012.91;;;26.61;37.28
8573;BME280;4324;42.012;24.872;2023-05-07T13:03:27;98987.88;;;26.33;37.28
8573;BME280;4324;42.012;24.872;2023-05-07T13:05:57;98970.75;;;26.22;37.06
8573;BME280;4324;42.012;24.872;2023-05-07T13:08:26;98994.13;;;26.39;37.52
8573;BME280;4324;42.012;24.872;2023-05-07T13:10:53;98982.44;;;26.38;37.06
8573;BME280;4324;42.012;24.872;2023-05-07T13:13:22;98956.09;;;26.28;36.92
8573;BME280;4324;42.012;24.872;2023-05-07T13:15:48;98975.13;;;26.34;37.20
8573;BME280;4324;42.012;24.872;2023-05-07T13:18:15;98989.53;;;26.44;37.05